createdAt,value
2023-03-23T15:57:58.341Z,97833.06
2023-03-23T16:00:27.781Z,97831.22
2023-03-23T16:03:00.926Z,97828.69
2023-03-23T16:05:28.162Z,97829.63
2023-03-23T16:07:54.813Z,97830.56
2023-03-23T16:10:24.500Z,97824.34
2023-03-23T16:12:51.258Z,97831.50
2023-03-23T16:15:17.857Z,97832.38
2023-03-23T16:17:46.616Z,97821.94
2023-03-23T16:20:22.576Z,97812.28
2023-03-23T16:22:50.605Z,97815.72
2023-03-23T16:25:18.713Z,97803.38
2023-03-23T16:27:51.278Z,97794.63
2023-03-23T16:30:29.313Z,97791.13
2023-03-23T16:32:57.757Z,97784.72
2023-03-23T16:35:27.512Z,97773.09
2023-03-23T16:38:08.267Z,97774.88
2023-03-23T16:40:37.102Z,97785.94
2023-03-23T16:43:08.949Z,97789.53
2023-03-23T16:45:43.278Z,97785.13
2023-03-23T16:48:11.800Z,97793.09
2023-03-23T16:50:39.326Z,97787.72
2023-03-23T16:53:08.197Z,97798.31
2023-03-23T16:55:36.573Z,97799.31
2023-03-23T16:58:15.473Z,97798.41
2023-03-23T17:00:46.967Z,97788.72
2023-03-23T17:03:13.642Z,97786.16
2023-03-23T17:05:40.847Z,97791.41
2023-03-23T17:08:07.456Z,97786.94
2023-03-23T17:10:34.324Z,97780.75
2023-03-23T17:13:01.849Z,97779.06
2023-03-23T17:15:28.568Z,97781.75
2023-03-23T17:17:55.479Z,97782.78
2023-03-23T17:20:23.087Z,97776.63
2023-03-23T17:22:49.726Z,97776.59
2023-03-23T17:25:16.382Z,97780.22
2023-03-23T17:27:42.974Z,97780.28
2023-03-23T17:30:11.077Z,97781.19
2023-03-23T17:32:40.933Z,97788.38
2023-03-23T17:35:07.771Z,97796.38
2023-03-23T17:37:34.941Z,97819.34
2023-03-23T17:40:01.672Z,97797.19
2023-03-23T17:42:29.746Z,97805.00
2023-03-23T17:44:56.280Z,97819.19
2023-03-23T17:47:23.842Z,97805.16
2023-03-23T17:49:51.253Z,97811.31
2023-03-23T17:52:17.866Z,97805.16
2023-03-23T17:54:44.451Z,97808.69
2023-03-23T17:57:11.349Z,97793.66
2023-03-23T17:59:37.863Z,97814.72
2023-03-23T18:02:04.514Z,97802.41
2023-03-23T18:04:30.987Z,97804.13
2023-03-23T18:06:58.639Z,97804.13
2023-03-23T18:09:25.820Z,97794.44
2023-03-23T18:11:56.267Z,97789.78
2023-03-23T18:14:23.096Z,97797.75
2023-03-23T18:16:49.606Z,97793.41
2023-03-23T18:19:16.690Z,97790.78
2023-03-23T18:21:45.780Z,97795.19
2023-03-23T18:24:12.993Z,97810.00
2023-03-23T18:26:40.415Z,97808.19
2023-03-23T18:29:06.939Z,97809.06
2023-03-23T18:31:34.163Z,97809.81
2023-03-23T18:34:00.732Z,97811.63
2023-03-23T18:36:28.348Z,97818.63
2023-03-23T18:38:57.017Z,97821.28
2023-03-23T18:41:24.163Z,97815.97
2023-03-23T18:43:50.875Z,97817.88
2023-03-23T18:46:17.568Z,97813.44
2023-03-23T18:48:44.262Z,97823.81
2023-03-23T18:51:11.329Z,97818.25
2023-03-23T18:53:37.881Z,97820.88
2023-03-23T18:56:10.842Z,97825.25
2023-03-23T18:58:37.789Z,97819.91
2023-03-23T19:01:07.494Z,97824.25
2023-03-23T19:03:43.585Z,97816.16
2023-03-23T19:06:25.379Z,97819.63
2023-03-23T19:08:53.442Z,97808.06
2023-03-23T19:11:21.933Z,97816.81
2023-03-23T19:14:00.553Z,97816.72
2023-03-23T19:16:35.715Z,97822.00
2023-03-23T19:19:03.526Z,97817.44
2023-03-23T19:21:33.385Z,97825.28
2023-03-23T19:24:01.541Z,97814.69
2023-03-23T19:26:42.651Z,97808.47
2023-03-23T19:31:49.728Z,97802.41
2023-03-23T19:34:16.879Z,97805.91
2023-03-23T19:36:54.969Z,97799.81
2023-03-23T19:39:25.526Z,97795.47
2023-03-23T19:41:52.025Z,97788.41
2023-03-23T19:44:18.944Z,97774.28
2023-03-23T19:46:46.342Z,97772.50
2023-03-23T19:49:13.533Z,97771.59
2023-03-23T19:51:43.396Z,97768.94
2023-03-23T19:54:10.058Z,97772.50
2023-03-23T19:56:39.557Z,97766.31
2023-03-23T19:59:08.591Z,97768.06
2023-03-23T20:01:38.150Z,97768.97
2023-03-23T20:04:05.443Z,97755.84
2023-03-23T20:06:32.588Z,97756.72
2023-03-23T20:09:00.177Z,97750.59
2023-03-23T20:11:27.730Z,97754.16
2023-03-23T20:13:57.740Z,97745.41
2023-03-23T20:16:31.662Z,97747.16
2023-03-23T20:19:00.353Z,97746.34
2023-03-23T20:21:29.710Z,97745.44
2023-03-23T20:23:58.523Z,97746.31
2023-03-23T20:26:30.740Z,97744.69
2023-03-23T20:28:57.324Z,97738.53
2023-03-23T20:31:27.218Z,97731.47
2023-03-23T20:34:01.895Z,97749.09
2023-03-23T20:36:35.793Z,97733.25
2023-03-23T20:39:10.453Z,97732.44
2023-03-23T20:41:38.822Z,97735.09
2023-03-23T20:44:07.008Z,97741.31
2023-03-23T20:46:37.058Z,97742.28
2023-03-23T20:49:06.341Z,97732.56
2023-03-23T20:51:34.932Z,97728.22
2023-03-23T20:54:02.136Z,97729.19
2023-03-23T20:56:29.320Z,97735.41
2023-03-23T20:58:56.062Z,97747.69
2023-03-23T21:01:22.929Z,97738.03
2023-03-23T21:03:54.158Z,97747.78
2023-03-23T21:06:21.525Z,97745.16
2023-03-23T21:08:48.290Z,97748.78
2023-03-23T21:11:20.867Z,97746.22
2023-03-23T21:13:48.427Z,97734.75
2023-03-23T21:16:15.910Z,97736.38
2023-03-23T21:18:43.974Z,97738.22
2023-03-23T21:21:15.792Z,97732.09
2023-03-23T21:23:46.782Z,97730.41
2023-03-23T21:26:27.818Z,97731.28
2023-03-23T21:28:54.886Z,97727.81
2023-03-23T21:31:26.715Z,97741.13
2023-03-23T21:33:58.300Z,97738.66
2023-03-23T21:36:26.665Z,97731.56
2023-03-23T21:38:53.280Z,97728.06
2023-03-23T21:41:19.905Z,97729.84
2023-03-23T21:43:46.451Z,97727.16
2023-03-23T21:46:17.917Z,97717.44
2023-03-23T21:48:51.448Z,97725.41
2023-03-23T21:51:29.209Z,97716.66
2023-03-23T21:53:56.699Z,97721.03
2023-03-23T21:56:30.174Z,97719.31
2023-03-23T21:58:57.302Z,97714.94
2023-03-23T22:01:24.036Z,97712.34
2023-03-23T22:03:51.217Z,97709.84
2023-03-23T22:06:28.522Z,97705.50
2023-03-23T22:08:55.361Z,97702.81
2023-03-23T22:11:27.150Z,97694.06
2023-03-23T22:13:58.223Z,97699.28
2023-03-23T22:16:25.461Z,97694.03
2023-03-23T22:18:54.008Z,97692.25
2023-03-23T22:21:25.994Z,97686.91
2023-03-23T22:23:53.409Z,97681.50
2023-03-23T22:26:20.479Z,97677.06
2023-03-23T22:28:49.446Z,97663.81
2023-03-23T22:31:26.553Z,97670.03
2023-03-23T22:33:55.477Z,97668.25
2023-03-23T22:36:26.907Z,97660.28
2023-03-23T22:38:55.564Z,97661.06
2023-03-23T22:41:27.532Z,97655.72
2023-03-23T22:43:54.109Z,97652.16
2023-03-23T22:46:21.825Z,97648.66
2023-03-23T22:48:48.544Z,97647.78
2023-03-23T22:51:17.693Z,97638.91
2023-03-23T22:53:46.127Z,97638.06
2023-03-23T22:56:13.037Z,97629.19
2023-03-23T22:58:42.857Z,97638.00
2023-03-23T23:01:14.163Z,97627.34
2023-03-23T23:03:40.915Z,97620.28
2023-03-23T23:06:08.174Z,97629.91
2023-03-23T23:08:34.868Z,97592.81
2023-03-23T23:11:04.101Z,97619.31
2023-03-23T23:13:33.102Z,97603.44
2023-03-23T23:16:02.072Z,97604.31
2023-03-23T23:18:30.949Z,97604.38
2023-03-23T23:21:00.639Z,97605.19
2023-03-23T23:23:30.284Z,97588.38
2023-03-23T23:25:57.185Z,97593.69
2023-03-23T23:28:24.168Z,97575.13
2023-03-23T23:30:51.675Z,97578.66
2023-03-23T23:33:18.979Z,97579.56
2023-03-23T23:35:46.577Z,97579.38
2023-03-23T23:38:14.119Z,97579.47
2023-03-23T23:40:42.832Z,97582.16
2023-03-23T23:43:14.513Z,97571.66
2023-03-23T23:45:43.750Z,97556.66
2023-03-23T23:48:14.178Z,97563.69
2023-03-23T23:50:40.932Z,97548.72
2023-03-23T23:53:12.261Z,97546.00
2023-03-23T23:55:39.759Z,97550.31
2023-03-23T23:58:06.291Z,97539.63
